EGNH METAR and TAF | Updated Today

EGNH METAR

Blackpool International Airport

Observation time: 8:24 hr. ago

EGNH 251850Z 19017KT 9999 VCSH FEW040CB 17/06 Q1004

Need help? Read our tutorial on how to read METARs or read the parsed version below.

Blackpool International Airport (EGNH) METAR

  • Weather conditions on Sat, 25 Jun 2022 18:50:00 +0000 (8:24 hr. ago):
  • Present conditions: In the vicinity, showers of
  • Clouds: A few at 1219 meters, cumulonimbus
  • Visibility: Greater than 10 km
  • Wind: 190 degrees at 17 knots
  • Temperature: 17 celsius
  • Dew point: 6 celsius
  • Pressure: 1004 millibars
  • Remarks: None


Useful to know...

EGNH TAF

Blackpool International Airport

TAF EGNH 251700Z 2518/2520 19014KT 9999 SCT035 TEMPO 2518/2520 21017G27KT 7000 SHRA
Observation time: 10:14 hr. ago
Need help? Read our tutorial on how to read TAFs or read the parsed version below.

Parsed version of TAF for Blackpool International Airport (EGNH)

  • From 25 June at 18:00 UTC, to day 25 of the month at 20:00 UTC
  • Clouds: Scattered at 1067 meters
  • Visibility: Greater than 10 km
  • Wind: 190 degrees at 14
  • Expected to arise temporarily, from 25 June at 18:00 UTC, to day 25 of the month at 20:00 UTC
  • Visibility: 7000 meters
  • Wind: 210 degrees at 17
  • Other: Showers of rain